Time;durP1;ratioP1;P1;durP2;ratioP2;P2;SDS_P1;SDS_P2;PMS_P1;PMS_P2;Temp;Humidity;BMP_temperature;BMP_pressure;BME280_temperature;BME280_humidity;BME280_pressure;Samples;Min_cycle;Max_cycle;Signal;HPM_P1;HPM_P2
2021/11/20 00:01:56;;;;;;;;;;;;;;;8.21;96.64;99234.92;1713944;84;20160;-61
2021/11/20 00:04:28;;;;;;;;;;;;;;;8.21;96.64;99237.13;1706801;84;20165;-61
2021/11/20 00:06:56;;;;;;;;;;;;;;;8.22;96.67;99235.23;1706764;84;20316;-61
2021/11/20 00:09:27;;;;;;;;;;;;;;;8.23;96.75;99235.03;1706641;84;20165;-62
2021/11/20 00:11:58;;;;;;;;;;;;;;;8.25;96.79;99224.73;1706754;84;20241;-60
2021/11/20 00:14:27;;;;;;;;;;;;;;;8.26;96.83;99220.12;1706770;84;20190;-62
2021/11/20 00:16:57;;;;;;;;;;;;;;;8.27;96.87;99219.07;1706770;84;20205;-60
2021/11/20 00:19:25;;;;;;;;;;;;;;;8.30;96.86;99219.17;1704702;84;20471;-61
2021/11/20 00:21:58;;;;;;;;;;;;;;;8.31;96.87;99214.86;1713742;84;20144;-60
2021/11/20 00:24:36;;;;;;;;;;;;;;;8.34;96.91;99207.66;1713924;84;20484;-60
2021/11/20 00:27:06;;;;;;;;;;;;;;;8.36;96.94;99206.91;1713814;84;20177;-62
2021/11/20 00:29:45;;;;;;;;;;;;;;;8.38;97.03;99200.72;1713708;84;20180;-61
2021/11/20 00:32:11;;;;;;;;;;;;;;;8.41;97.10;99200.81;1713468;84;20179;-62
2021/11/20 00:34:41;;;;;;;;;;;;;;;8.41;97.13;99194.83;1713766;84;20191;-63
2021/11/20 00:37:09;;;;;;;;;;;;;;;8.42;97.15;99188.84;1713611;84;20519;-61
2021/11/20 00:39:37;;;;;;;;;;;;;;;8.43;97.18;99187.27;1713959;84;20497;-60
2021/11/20 00:42:08;;;;;;;;;;;;;;;8.46;97.24;99180.58;1713701;84;20279;-60
2021/11/20 00:44:37;;;;;;;;;;;;;;;8.46;97.32;99174.59;1713821;84;20188;-61
2021/11/20 00:47:05;;;;;;;;;;;;;;;8.47;97.40;99171.33;1713778;84;20221;-60
2021/11/20 00:49:33;;;;;;;;;;;;;;;8.48;97.43;99167.02;1714133;83;20251;-62
2021/11/20 00:52:03;;;;;;;;;;;;;;;8.50;97.45;99149.91;1713847;84;20169;-64
2021/11/20 00:54:33;;;;;;;;;;;;;;;8.52;97.58;99161.45;1714014;84;20216;-61
2021/11/20 00:57:01;;;;;;;;;;;;;;;8.52;97.62;99146.44;1713846;84;20244;-60
2021/11/20 00:59:31;;;;;;;;;;;;;;;8.55;97.64;99148.73;1713712;84;20156;-61
2021/11/20 01:02:02;;;;;;;;;;;;;;;8.57;97.64;99134.34;1713765;83;20164;-61
2021/11/20 01:04:33;;;;;;;;;;;;;;;8.58;97.69;99129.19;1713739;84;20150;-61
2021/11/20 01:07:01;;;;;;;;;;;;;;;8.60;97.73;99120.78;1713715;84;20590;-60
2021/11/20 01:09:34;;;;;;;;;;;;;;;8.63;97.75;99124.45;1713909;84;20168;-60
2021/11/20 01:12:07;;;;;;;;;;;;;;;8.66;97.75;99119.92;1714016;84;20152;-60
2021/11/20 01:14:35;;;;;;;;;;;;;;;8.69;97.83;99117.28;1713952;84;20506;-60
2021/11/20 01:17:06;;;;;;;;;;;;;;;8.69;97.95;99114.03;1713673;84;20212;-61
2021/11/20 01:19:34;;;;;;;;;;;;;;;8.72;97.99;99111.39;1713920;83;20161;-64
2021/11/20 01:22:11;;;;;;;;;;;;;;;8.74;98.01;99103.81;1711952;84;20283;-62
2021/11/20 01:24:41;;;;;;;;;;;;;;;8.76;98.07;99082.59;1708191;84;20276;-60
2021/11/20 01:27:11;;;;;;;;;;;;;;;8.80;98.16;99079.20;1706532;84;20142;-61
2021/11/20 01:29:41;;;;;;;;;;;;;;;8.84;98.20;99080.97;1706772;84;20162;-68
2021/11/20 01:32:10;;;;;;;;;;;;;;;8.86;98.21;99080.22;1706793;84;20519;-61
2021/11/20 01:34:41;;;;;;;;;;;;;;;8.90;98.23;99060.97;1706599;84;20185;-61
2021/11/20 01:37:09;;;;;;;;;;;;;;;8.91;98.28;99068.11;1706626;84;20519;-60
2021/11/20 01:39:39;;;;;;;;;;;;;;;8.92;98.33;99053.39;1706709;84;20181;-61
2021/11/20 01:42:22;;;;;;;;;;;;;;;8.96;98.33;99052.42;1706789;84;20502;-62
2021/11/20 01:45:14;;;;;;;;;;;;;;;8.99;98.31;99038.33;1706324;84;20208;-60
2021/11/20 01:47:53;;;;;;;;;;;;;;;9.01;98.34;99039.78;1706631;84;20170;-60
2021/11/20 01:50:31;;;;;;;;;;;;;;;9.05;98.39;99035.55;1706904;84;20162;-60
2021/11/20 01:53:20;;;;;;;;;;;;;;;9.09;98.47;99033.20;1707042;84;20177;-63
2021/11/20 01:56:11;;;;;;;;;;;;;;;9.12;98.43;99032.27;1706537;84;20149;-60
2021/11/20 01:58:50;;;;;;;;;;;;;;;9.16;98.45;99021.73;1706585;84;20177;-60
2021/11/20 02:01:24;;;;;;;;;;;;;;;9.21;98.47;99008.23;1701882;84;20201;-61
2021/11/20 02:04:03;;;;;;;;;;;;;;;9.24;98.45;99017.88;1705158;84;20205;-60
2021/11/20 02:06:43;;;;;;;;;;;;;;;9.26;98.37;99008.94;1706249;84;20205;-60
2021/11/20 02:09:17;;;;;;;;;;;;;;;9.29;98.34;99008.48;1670109;84;20149;-64
2021/11/20 02:12:01;;;;;;;;;;;;;;;9.31;98.30;99006.36;1705562;84;20459;-62
2021/11/20 02:14:31;;;;;;;;;;;;;;;9.34;98.32;99003.19;1706898;84;20265;-61
2021/11/20 02:17:15;;;;;;;;;;;;;;;9.37;98.36;98997.27;1700586;84;20504;-61
2021/11/20 02:19:47;;;;;;;;;;;;;;;9.39;98.40;98994.62;1705219;84;20178;-62
2021/11/20 02:22:35;;;;;;;;;;;;;;;9.43;98.45;99001.30;1695304;84;20177;-62
2021/11/20 02:25:03;;;;;;;;;;;;;;;9.49;98.49;98996.84;1713636;84;20168;-61
2021/11/20 02:27:44;;;;;;;;;;;;;;;9.51;98.50;98997.45;1695828;84;20458;-62
2021/11/20 02:30:21;;;;;;;;;;;;;;;9.56;98.49;98995.41;1713599;84;20228;-62
2021/11/20 02:33:07;;;;;;;;;;;;;;;9.59;98.41;98988.12;1713799;84;20516;-62
2021/11/20 02:35:50;;;;;;;;;;;;;;;9.63;98.32;98983.34;1713376;84;20149;-62
2021/11/20 02:38:28;;;;;;;;;;;;;;;9.66;98.20;98977.41;1713652;84;20159;-65
2021/11/20 02:40:57;;;;;;;;;;;;;;;9.69;98.12;98972.86;1713856;84;20258;-62
2021/11/20 02:43:26;;;;;;;;;;;;;;;9.72;98.01;98973.77;1713835;84;20160;-61
2021/11/20 02:45:57;;;;;;;;;;;;;;;9.75;97.91;98968.38;1713621;84;20156;-61
2021/11/20 02:48:25;;;;;;;;;;;;;;;9.80;97.80;98963.93;1714016;84;20466;-61
2021/11/20 02:50:57;;;;;;;;;;;;;;;9.82;97.64;98964.54;1713753;84;20161;-61
2021/11/20 02:53:30;;;;;;;;;;;;;;;9.85;97.50;98966.81;1713748;84;20208;-61
2021/11/20 02:55:58;;;;;;;;;;;;;;;9.89;97.22;98967.73;1689454;84;20211;-61
2021/11/20 02:58:29;;;;;;;;;;;;;;;9.93;97.01;98960.20;1713694;83;20447;-62
2021/11/20 03:01:03;;;;;;;;;;;;;;;9.96;96.74;98959.75;1713664;84;20199;-61
2021/11/20 03:03:33;;;;;;;;;;;;;;;9.98;96.54;98958.15;1713640;83;20283;-61
2021/11/20 03:06:03;;;;;;;;;;;;;;;10.00;96.33;98960.12;1713597;83;20275;-62
2021/11/20 03:08:31;;;;;;;;;;;;;;;10.01;96.12;98953.05;1677474;84;20494;-60
2021/11/20 03:11:02;;;;;;;;;;;;;;;10.03;95.97;98947.34;1701359;84;20246;-62
2021/11/20 03:13:31;;;;;;;;;;;;;;;10.04;95.78;98943.55;1701698;84;20158;-62
2021/11/20 03:15:59;;;;;;;;;;;;;;;10.07;95.61;98944.45;1701696;84;20166;-65
2021/11/20 03:18:29;;;;;;;;;;;;;;;10.09;95.42;98943.69;1701675;84;20165;-64
2021/11/20 03:20:58;;;;;;;;;;;;;;;10.11;95.16;98952.51;1714010;84;20153;-61
2021/11/20 03:23:30;;;;;;;;;;;;;;;10.16;94.91;98945.81;1714025;84;20200;-62
2021/11/20 03:25:58;;;;;;;;;;;;;;;10.17;94.55;98949.69;1714061;83;20173;-62
2021/11/20 03:28:26;;;;;;;;;;;;;;;10.18;94.28;98954.09;1713981;84;20620;-62
2021/11/20 03:30:55;;;;;;;;;;;;;;;10.24;93.95;98955.10;1714217;84;20486;-62
2021/11/20 03:33:24;;;;;;;;;;;;;;;10.27;93.80;98958.75;1714325;84;20164;-64
2021/11/20 03:35:52;;;;;;;;;;;;;;;10.27;93.64;98949.16;1714379;84;20450;-62
2021/11/20 03:38:25;;;;;;;;;;;;;;;10.27;93.66;98950.53;1714080;84;20528;-61
2021/11/20 03:40:55;;;;;;;;;;;;;;;10.29;93.83;98931.98;1713919;83;20180;-63
2021/11/20 03:43:24;;;;;;;;;;;;;;;10.27;93.89;98940.13;1714276;84;20189;-63
2021/11/20 03:45:53;;;;;;;;;;;;;;;10.23;94.18;98949.33;1714238;84;20168;-61
2021/11/20 03:48:21;;;;;;;;;;;;;;;10.23;94.41;98958.91;1714376;84;20614;-62
2021/11/20 03:50:50;;;;;;;;;;;;;;;10.23;94.53;98952.59;1714024;84;20204;-63
2021/11/20 03:53:19;;;;;;;;;;;;;;;10.21;94.74;98939.14;1714102;84;20152;-64
2021/11/20 03:55:49;;;;;;;;;;;;;;;10.19;94.90;98941.24;1714048;84;20184;-61
2021/11/20 03:58:19;;;;;;;;;;;;;;;10.18;95.12;98927.25;1714019;84;20208;-63
2021/11/20 04:00:55;;;;;;;;;;;;;;;10.17;95.14;98938.73;1714042;84;20144;-62
2021/11/20 04:03:25;;;;;;;;;;;;;;;10.18;95.16;98943.14;1714070;84;20152;-63
2021/11/20 04:05:54;;;;;;;;;;;;;;;10.18;95.24;98947.25;1713933;84;20180;-61
2021/11/20 04:08:26;;;;;;;;;;;;;;;10.17;95.27;98933.27;1713990;84;20203;-61
2021/11/20 04:10:57;;;;;;;;;;;;;;;10.17;95.25;98937.37;1713126;84;20200;-62
2021/11/20 04:13:27;;;;;;;;;;;;;;;10.17;95.05;98950.22;1714031;84;20188;-63
2021/11/20 04:15:55;;;;;;;;;;;;;;;10.19;94.87;98953.56;1713989;84;20157;-62
2021/11/20 04:18:27;;;;;;;;;;;;;;;10.20;94.02;98943.45;1714046;84;20156;-60
2021/11/20 04:20:56;;;;;;;;;;;;;;;10.28;93.64;98954.11;1716645;83;20485;-61
2021/11/20 04:23:28;;;;;;;;;;;;;;;10.33;93.34;98950.98;1719382;83;20152;-61
2021/11/20 04:25:56;;;;;;;;;;;;;;;10.32;92.79;98936.98;1719306;83;20243;-62
2021/11/20 04:28:25;;;;;;;;;;;;;;;10.33;92.43;98942.77;1719329;83;20476;-62
2021/11/20 04:31:04;;;;;;;;;;;;;;;10.34;92.10;98941.70;1718031;83;20215;-62
2021/11/20 04:33:34;;;;;;;;;;;;;;;10.35;91.91;98968.54;1719537;83;20215;-61
2021/11/20 04:36:04;;;;;;;;;;;;;;;10.34;91.79;98938.95;1719324;83;20290;-61
2021/11/20 04:38:34;;;;;;;;;;;;;;;10.32;91.65;98944.36;1719542;83;20183;-62
2021/11/20 04:41:03;;;;;;;;;;;;;;;10.31;91.52;98944.90;1719518;83;20176;-60
2021/11/20 04:43:32;;;;;;;;;;;;;;;10.31;91.24;98951.74;1719257;83;20478;-61
2021/11/20 04:46:02;;;;;;;;;;;;;;;10.32;90.96;98951.20;1692942;83;20219;-61
2021/11/20 04:48:30;;;;;;;;;;;;;;;10.32;90.65;98944.36;1719423;83;20223;-62
2021/11/20 04:51:08;;;;;;;;;;;;;;;10.33;90.44;98950.98;1719398;83;20184;-61
2021/11/20 04:53:37;;;;;;;;;;;;;;;10.34;90.25;98970.98;1719347;83;20164;-62
2021/11/20 04:56:07;;;;;;;;;;;;;;;10.33;89.69;98974.25;1719420;83;20219;-61
2021/11/20 04:58:35;;;;;;;;;;;;;;;10.35;89.32;98984.44;1719583;83;20164;-61
2021/11/20 05:01:05;;;;;;;;;;;;;;;10.35;89.22;98974.85;1719637;83;20220;-62
2021/11/20 05:03:35;;;;;;;;;;;;;;;10.36;89.04;98970.21;1706319;84;20280;-61
2021/11/20 05:06:03;;;;;;;;;;;;;;;10.35;88.58;98970.74;1706789;84;20161;-60
2021/11/20 05:08:32;;;;;;;;;;;;;;;10.34;88.61;98967.70;1700511;84;20170;-61
2021/11/20 05:11:04;;;;;;;;;;;;;;;10.36;88.57;98960.09;1706245;84;20276;-64
2021/11/20 05:13:42;;;;;;;;;;;;;;;10.33;88.67;98981.09;1706552;84;20178;-68
2021/11/20 05:16:12;;;;;;;;;;;;;;;10.31;88.91;98985.96;1707028;84;20500;-62
2021/11/20 05:18:40;;;;;;;;;;;;;;;10.29;89.12;98982.63;1706673;84;20173;-63
2021/11/20 05:21:16;;;;;;;;;;;;;;;10.27;89.37;98983.38;1704289;84;20173;-61
2021/11/20 05:23:46;;;;;;;;;;;;;;;10.25;89.43;98991.52;1701324;84;20277;-60
2021/11/20 05:26:15;;;;;;;;;;;;;;;10.22;89.49;98998.29;1701404;84;20162;-62
2021/11/20 05:28:51;;;;;;;;;;;;;;;10.21;88.62;99025.36;1701390;84;20178;-60
2021/11/20 05:31:17;;;;;;;;;;;;;;;10.26;88.07;99022.77;1701242;84;20174;-62
2021/11/20 05:33:49;;;;;;;;;;;;;;;10.29;87.68;99016.84;1701322;84;20480;-61
2021/11/20 05:36:17;;;;;;;;;;;;;;;10.30;87.36;99031.36;1701342;84;20262;-62
2021/11/20 05:38:48;;;;;;;;;;;;;;;10.30;87.18;99027.25;1701341;84;20198;-62
2021/11/20 05:41:17;;;;;;;;;;;;;;;10.31;87.19;99024.81;1701337;84;20495;-62
2021/11/20 05:43:46;;;;;;;;;;;;;;;10.27;87.28;99032.66;1701272;84;20162;-62
2021/11/20 05:46:21;;;;;;;;;;;;;;;10.26;87.45;99029.61;1700720;84;20158;-63
2021/11/20 05:48:52;;;;;;;;;;;;;;;10.25;87.57;99042.16;1701626;84;20166;-60
2021/11/20 05:51:21;;;;;;;;;;;;;;;10.24;87.70;99037.75;1701489;84;20190;-62
2021/11/20 05:53:50;;;;;;;;;;;;;;;10.23;87.80;99043.76;1701275;84;20528;-62
2021/11/20 05:56:19;;;;;;;;;;;;;;;10.22;88.01;99028.94;1701528;84;20238;-63
2021/11/20 05:58:49;;;;;;;;;;;;;;;10.18;88.12;99047.15;1713618;83;20336;-61
2021/11/20 06:01:19;;;;;;;;;;;;;;;10.19;88.19;99035.67;1713683;83;20244;-62
2021/11/20 06:03:49;;;;;;;;;;;;;;;10.17;88.32;99041.91;1677426;84;20264;-63
2021/11/20 06:06:18;;;;;;;;;;;;;;;10.16;88.17;99037.49;1701834;84;20527;-61
2021/11/20 06:08:46;;;;;;;;;;;;;;;10.15;88.08;99030.34;1701641;84;20499;-62
2021/11/20 06:11:17;;;;;;;;;;;;;;;10.15;88.02;99037.19;1701751;84;20618;-62
2021/11/20 06:13:47;;;;;;;;;;;;;;;10.17;87.85;99028.22;1701642;84;20202;-62
2021/11/20 06:16:29;;;;;;;;;;;;;;;10.15;87.63;99024.34;1701528;84;20480;-62
2021/11/20 06:18:59;;;;;;;;;;;;;;;10.14;87.03;99032.78;1701654;84;20182;-61
2021/11/20 06:21:28;;;;;;;;;;;;;;;10.13;86.51;99031.11;1701469;84;20225;-62
2021/11/20 06:23:56;;;;;;;;;;;;;;;10.12;85.85;99031.64;1713048;84;20530;-62
2021/11/20 06:26:25;;;;;;;;;;;;;;;10.14;85.20;99030.05;1689431;84;20160;-62
2021/11/20 06:28:55;;;;;;;;;;;;;;;10.15;84.82;99044.88;1713681;84;20220;-62
2021/11/20 06:31:24;;;;;;;;;;;;;;;10.14;84.63;99043.20;1713703;83;20486;-62
2021/11/20 06:34:00;;;;;;;;;;;;;;;10.14;84.41;99053.31;1704832;84;20228;-63
2021/11/20 06:36:47;;;;;;;;;;;;;;;10.16;83.64;99036.12;1713700;84;20470;-63
2021/11/20 06:39:18;;;;;;;;;;;;;;;10.19;83.50;99052.09;1712182;84;20153;-61
2021/11/20 06:41:47;;;;;;;;;;;;;;;10.19;83.43;99047.98;1713624;84;20224;-60
2021/11/20 06:44:15;;;;;;;;;;;;;;;10.19;83.32;99037.03;1713638;84;20247;-62
2021/11/20 06:46:43;;;;;;;;;;;;;;;10.21;83.04;99049.99;1689481;84;20165;-60
2021/11/20 06:49:12;;;;;;;;;;;;;;;10.26;82.28;99044.67;1713704;84;20466;-62
2021/11/20 06:51:42;;;;;;;;;;;;;;;10.31;82.04;99048.92;1712433;84;20482;-65
2021/11/20 06:54:21;;;;;;;;;;;;;;;10.33;81.17;99034.47;1696066;84;20522;-62
2021/11/20 06:56:53;;;;;;;;;;;;;;;10.37;80.74;99042.53;1708807;84;20156;-61
2021/11/20 07:02:35;;;;;;;;;;;;;;;10.42;79.50;99040.50;1710070;84;20374;-62
2021/11/20 07:05:05;;;;;;;;;;;;;;;10.45;79.42;99044.98;1713762;83;20168;-62
2021/11/20 07:07:35;;;;;;;;;;;;;;;10.47;78.70;99042.86;1714122;84;20151;-60
2021/11/20 07:10:04;;;;;;;;;;;;;;;10.54;78.09;99029.61;1714068;84;20236;-62
2021/11/20 07:12:33;;;;;;;;;;;;;;;10.60;77.26;99035.53;1713691;84;20148;-62
2021/11/20 07:15:01;;;;;;;;;;;;;;;10.69;76.56;99034.98;1713790;84;20207;-62
2021/11/20 07:17:33;;;;;;;;;;;;;;;10.78;76.61;99040.97;1713709;84;20164;-62
2021/11/20 07:20:08;;;;;;;;;;;;;;;10.80;76.82;99036.09;1682261;84;20474;-60
2021/11/20 07:22:38;;;;;;;;;;;;;;;10.82;76.13;99045.45;1696378;83;20179;-62
2021/11/20 07:25:12;;;;;;;;;;;;;;;10.87;75.14;99032.72;1719251;83;20443;-61
2021/11/20 07:27:41;;;;;;;;;;;;;;;10.97;75.47;99033.52;1719537;83;20458;-61
2021/11/20 07:30:14;;;;;;;;;;;;;;;11.08;72.42;99019.88;1719248;83;20232;-61
2021/11/20 07:32:50;;;;;;;;;;;;;;;11.17;72.36;99035.45;1719492;83;20152;-62
2021/11/20 07:35:25;;;;;;;;;;;;;;;11.19;71.80;99033.84;1719848;83;20171;-60
2021/11/20 07:37:55;;;;;;;;;;;;;;;11.25;72.17;99037.86;1719413;83;20530;-63
2021/11/20 07:40:24;;;;;;;;;;;;;;;11.38;70.70;99049.98;1719371;83;20458;-62
2021/11/20 07:42:53;;;;;;;;;;;;;;;11.51;68.90;99021.50;1719778;83;20470;-61
2021/11/20 07:45:41;;;;;;;;;;;;;;;11.62;69.78;99037.66;1719368;83;20223;-62
2021/11/20 07:48:13;;;;;;;;;;;;;;;11.71;68.89;99042.58;1719622;83;20188;-61
2021/11/20 07:50:44;;;;;;;;;;;;;;;11.75;67.48;99056.13;1595644;90;20219;-63
2021/11/20 07:53:16;;;;;;;;;;;;;;;11.69;67.75;99056.21;1595960;88;20169;-62
2021/11/20 07:55:48;;;;;;;;;;;;;;;11.57;67.03;99052.09;1595667;90;20646;-62
2021/11/20 07:58:17;;;;;;;;;;;;;;;11.49;67.78;99060.66;1568736;91;20550;-61
2021/11/20 08:00:46;;;;;;;;;;;;;;;11.42;68.16;99048.97;1568588;91;20163;-60
2021/11/20 08:03:15;;;;;;;;;;;;;;;11.40;67.71;99068.41;1568694;90;20609;-63
2021/11/20 08:05:57;;;;;;;;;;;;;;;11.44;67.89;99074.25;1568484;91;20159;-63
2021/11/20 08:08:31;;;;;;;;;;;;;;;11.46;67.36;99072.11;1609501;85;20468;-62
2021/11/20 08:11:07;;;;;;;;;;;;;;;11.54;66.51;99084.11;1707073;84;20206;-62
2021/11/20 08:13:36;;;;;;;;;;;;;;;11.64;65.38;99091.22;1707469;84;20518;-62
2021/11/20 08:16:23;;;;;;;;;;;;;;;11.71;66.63;99085.65;1707617;84;20166;-62
2021/11/20 08:18:56;;;;;;;;;;;;;;;11.75;66.05;99084.10;1696754;83;20448;-62
2021/11/20 08:21:30;;;;;;;;;;;;;;;11.78;65.76;99102.87;1717674;83;20462;-62
2021/11/20 08:24:00;;;;;;;;;;;;;;;11.78;65.02;99085.56;1712593;84;20148;-64
2021/11/20 08:26:36;;;;;;;;;;;;;;;11.74;64.27;99094.24;1713967;84;20563;-63
2021/11/20 08:29:00;;;;;;;;;;;;;;;11.70;63.97;99104.52;1713582;84;20514;-62
2021/11/20 08:31:32;;;;;;;;;;;;;;;11.66;63.43;99113.77;1714078;84;20160;-62
2021/11/20 08:34:08;;;;;;;;;;;;;;;11.64;64.20;99091.22;1711929;84;20160;-62
2021/11/20 08:36:42;;;;;;;;;;;;;;;11.64;64.39;99107.68;1702907;84;20536;-62
2021/11/20 08:39:14;;;;;;;;;;;;;;;11.65;64.23;99101.66;1714160;83;20478;-62
2021/11/20 08:41:44;;;;;;;;;;;;;;;11.66;64.19;99095.94;1713942;84;20148;-63
2021/11/20 08:44:13;;;;;;;;;;;;;;;11.65;64.33;99098.38;1713939;84;20160;-63
2021/11/20 08:46:46;;;;;;;;;;;;;;;11.61;62.02;99088.95;1713626;83;20513;-62
2021/11/20 08:49:16;;;;;;;;;;;;;;;11.62;63.37;99090.62;1713939;84;20555;-63
2021/11/20 08:51:44;;;;;;;;;;;;;;;11.60;62.38;99074.09;1713859;84;20480;-63
2021/11/20 08:54:13;;;;;;;;;;;;;;;11.59;61.35;99064.20;1713904;84;20271;-62
2021/11/20 08:56:43;;;;;;;;;;;;;;;11.62;61.95;99085.13;1712944;82;20455;-64
2021/11/20 09:02:19;;;;;;;;;;;;;;;11.61;61.09;99080.72;1700129;83;20244;-67
2021/11/20 09:04:56;;;;;;;;;;;;;;;11.60;61.15;99085.91;1709831;82;20243;-62
2021/11/20 09:10:33;;;;;;;;;;;;;;;11.58;60.60;99075.70;1688176;85;20273;-62
2021/11/20 09:13:20;;;;;;;;;;;;;;;11.59;60.47;99087.52;1636089;86;20196;-63
2021/11/20 09:15:56;;;;;;;;;;;;;;;11.59;59.34;99095.20;1658710;85;20220;-63
2021/11/20 09:18:26;;;;;;;;;;;;;;;11.60;59.46;99083.16;1669247;86;20287;-63
2021/11/20 09:20:56;;;;;;;;;;;;;;;11.57;59.32;99083.64;1681891;85;20220;-63
2021/11/20 09:23:27;;;;;;;;;;;;;;;11.58;58.96;99084.47;1679182;85;20555;-63
2021/11/20 09:29:00;;;;;;;;;;;;;;;11.63;58.22;99092.29;1689910;83;20165;-63
2021/11/20 09:31:30;;;;;;;;;;;;;;;11.63;58.39;99092.29;1682357;84;20235;-64
2021/11/20 09:36:58;;;;;;;;;;;;;;;11.60;57.58;99107.02;1674495;84;20217;-63
2021/11/20 09:39:32;;;;;;;;;;;;;;;11.54;56.03;99091.50;1683040;85;20211;-63
2021/11/20 09:42:13;;;;;;;;;;;;;;;11.52;56.38;99078.02;1689115;85;20287;-63
2021/11/20 09:44:46;;;;;;;;;;;;;;;11.51;56.98;99090.06;1664554;85;20461;-63
2021/11/20 09:47:36;;;;;;;;;;;;;;;11.51;56.87;99082.38;1713987;82;20156;-64
2021/11/20 09:53:15;;;;;;;;;;;;;;;11.53;56.40;99082.44;1686840;84;20223;-63
2021/11/20 09:55:49;;;;;;;;;;;;;;;11.57;55.94;99096.52;1696702;85;20304;-64
2021/11/20 09:58:24;;;;;;;;;;;;;;;11.61;53.87;99088.11;1704801;83;20279;-64
2021/11/20 10:01:13;;;;;;;;;;;;;;;11.64;53.27;99080.24;1669517;84;20218;-64
2021/11/20 10:09:37;;;;;;;;;;;;;;;11.70;52.65;99087.56;1744092;81;20538;-61
2021/11/20 10:12:21;;;;;;;;;;;;;;;11.71;53.04;99090.60;1746607;81;20189;-69
2021/11/20 10:15:17;;;;;;;;;;;;;;;11.74;52.69;99090.66;1777221;80;20506;-66
2021/11/20 10:20:33;;;;;;;;;;;;;;;11.75;51.23;99091.80;1776131;81;20170;-64
2021/11/20 10:23:17;;;;;;;;;;;;;;;11.77;51.70;99108.56;1762197;80;20261;-72
2021/11/20 10:26:14;;;;;;;;;;;;;;;11.77;52.50;99116.80;1764281;80;20240;-62
2021/11/20 10:29:15;;;;;;;;;;;;;;;11.81;51.91;99107.88;1759845;81;20156;-64
2021/11/20 10:31:48;;;;;;;;;;;;;;;11.82;51.49;99119.70;1747420;81;20207;-63
2021/11/20 10:34:26;;;;;;;;;;;;;;;11.83;52.43;99134.55;1738067;82;20272;-63
2021/11/20 10:37:17;;;;;;;;;;;;;;;11.85;52.13;99121.97;1737817;82;20244;-64
2021/11/20 10:39:49;;;;;;;;;;;;;;;11.84;51.34;99137.59;1724727;81;20524;-63
2021/11/20 10:42:20;;;;;;;;;;;;;;;11.84;50.53;99121.12;1771196;81;20217;-65
2021/11/20 10:44:54;;;;;;;;;;;;;;;11.85;50.84;99115.94;1771134;81;20148;-64
2021/11/20 10:47:33;;;;;;;;;;;;;;;11.86;50.45;99110.75;1770831;80;20211;-66
2021/11/20 10:50:38;;;;;;;;;;;;;;;11.86;50.07;99116.77;1736970;81;20551;-63
2021/11/20 10:56:28;;;;;;;;;;;;;;;11.83;49.35;99102.99;1745223;81;20160;-63
2021/11/20 10:59:10;;;;;;;;;;;;;;;11.81;49.21;99132.58;1745159;82;20203;-64
2021/11/20 11:01:58;;;;;;;;;;;;;;;11.77;49.73;99133.25;1734153;82;20207;-63
2021/11/20 11:04:49;;;;;;;;;;;;;;;11.75;49.95;99139.81;1748545;82;20175;-63
2021/11/20 11:07:32;;;;;;;;;;;;;;;11.77;50.31;99138.74;1743119;81;20157;-64
2021/11/20 11:10:07;;;;;;;;;;;;;;;11.75;50.54;99142.56;1761878;81;20567;-64
2021/11/20 11:12:55;;;;;;;;;;;;;;;11.74;48.30;99146.91;1770964;81;20219;-63
2021/11/20 11:15:30;;;;;;;;;;;;;;;11.75;47.99;99150.80;1753436;81;20221;-64
2021/11/20 11:18:17;;;;;;;;;;;;;;;11.74;48.85;99149.66;1734222;82;20180;-66
2021/11/20 11:20:55;;;;;;;;;;;;;;;11.69;48.89;99146.22;1734328;83;20169;-65
2021/11/20 11:23:47;;;;;;;;;;;;;;;11.66;48.81;99156.30;1731269;83;20264;-64
2021/11/20 11:26:16;;;;;;;;;;;;;;;11.67;49.39;99168.94;1734598;82;20202;-64
2021/11/20 11:29:03;;;;;;;;;;;;;;;11.67;49.20;99159.34;1734191;83;20253;-64
2021/11/20 11:31:36;;;;;;;;;;;;;;;11.66;49.77;99180.98;1734191;83;20467;-63
2021/11/20 11:34:25;;;;;;;;;;;;;;;11.65;49.12;99153.25;1734121;83;20256;-63
2021/11/20 11:37:06;;;;;;;;;;;;;;;11.61;49.75;99173.98;1714279;83;20241;-63
2021/11/20 11:39:54;;;;;;;;;;;;;;;11.61;50.12;99185.50;1734096;83;20197;-63
2021/11/20 11:42:55;;;;;;;;;;;;;;;11.59;49.54;99182.16;1734421;82;20522;-63
2021/11/20 11:45:43;;;;;;;;;;;;;;;11.57;49.20;99189.25;1735933;82;20201;-64
2021/11/20 11:48:18;;;;;;;;;;;;;;;11.62;49.88;99188.02;1740493;82;20264;-63
2021/11/20 11:51:02;;;;;;;;;;;;;;;11.62;48.45;99185.80;1738472;82;20452;-64
2021/11/20 11:54:06;;;;;;;;;;;;;;;11.58;48.03;99182.69;1740353;82;20211;-62
2021/11/20 11:56:38;;;;;;;;;;;;;;;11.58;49.02;99181.32;1710299;84;20473;-62
2021/11/20 11:59:28;;;;;;;;;;;;;;;11.59;48.65;99187.64;1731390;82;20174;-63
2021/11/20 12:02:00;;;;;;;;;;;;;;;11.59;48.25;99185.73;1738237;82;20150;-62
2021/11/20 12:04:33;;;;;;;;;;;;;;;11.58;47.94;99185.44;1740551;82;20529;-64
2021/11/20 12:07:26;;;;;;;;;;;;;;;11.56;47.56;99180.72;1740584;82;20459;-64
2021/11/20 12:19:08;;;;;;;;;;;;;;;11.46;47.67;99201.02;1680409;85;20544;-64
2021/11/20 12:21:48;;;;;;;;;;;;;;;11.46;47.29;99211.98;1575040;91;20583;-62
2021/11/20 12:27:37;;;;;;;;;;;;;;;11.44;47.82;99219.61;1575331;91;20244;-64
2021/11/20 12:30:25;;;;;;;;;;;;;;;11.42;47.72;99214.36;1575637;91;20654;-62
2021/11/20 12:36:22;;;;;;;;;;;;;;;11.41;48.04;99225.56;1575526;91;20176;-62
2021/11/20 12:39:28;;;;;;;;;;;;;;;11.37;47.40;99231.20;1586901;85;20340;-62
2021/11/20 12:48:37;;;;;;;;;;;;;;;11.25;46.70;99264.59;1738591;82;20589;-61
2021/11/20 13:06:36;;;;;;;;;;;;;;;11.05;47.22;99262.05;1739154;82;20185;-64
2021/11/20 13:11:56;;;;;;;;;;;;;;;10.99;47.33;99265.71;1660876;84;20228;-64
2021/11/20 13:14:44;;;;;;;;;;;;;;;10.96;47.64;99286.19;1720822;82;20212;-63
2021/11/20 13:17:28;;;;;;;;;;;;;;;10.97;48.96;99282.91;1664257;86;20202;-64
2021/11/20 13:20:04;;;;;;;;;;;;;;;10.96;47.35;99273.86;1661722;86;20187;-61
2021/11/20 13:22:35;;;;;;;;;;;;;;;10.94;47.96;99285.58;1616858;87;20218;-63
2021/11/20 13:25:20;;;;;;;;;;;;;;;10.91;47.36;99307.95;1655295;87;20202;-62
2021/11/20 13:27:56;;;;;;;;;;;;;;;10.89;47.54;99300.49;1655221;87;20222;-63
2021/11/20 13:30:32;;;;;;;;;;;;;;;10.87;48.17;99305.36;1565448;91;20225;-61
2021/11/20 13:33:05;;;;;;;;;;;;;;;10.84;47.71;99307.19;1527349;93;20239;-62
2021/11/20 13:36:01;;;;;;;;;;;;;;;10.79;47.80;99309.23;1572712;90;20304;-63
2021/11/20 13:38:30;;;;;;;;;;;;;;;10.77;47.91;99314.63;1637844;87;20205;-62
2021/11/20 13:41:00;;;;;;;;;;;;;;;10.75;47.96;99312.65;1647862;87;20221;-63
2021/11/20 13:43:45;;;;;;;;;;;;;;;10.72;47.90;99304.88;1611917;87;20622;-63
2021/11/20 13:46:25;;;;;;;;;;;;;;;10.68;48.16;99326.95;1643192;87;20462;-62
2021/11/20 13:48:54;;;;;;;;;;;;;;;10.65;47.90;99310.95;1600756;88;20259;-63
2021/11/20 13:51:33;;;;;;;;;;;;;;;10.61;48.38;99311.10;1607473;87;20567;-63
2021/11/20 13:54:08;;;;;;;;;;;;;;;10.57;48.33;99308.50;1634584;84;20238;-63
2021/11/20 13:56:39;;;;;;;;;;;;;;;10.52;49.09;99331.62;1715166;83;20245;-63
2021/11/20 13:59:09;;;;;;;;;;;;;;;10.46;48.51;99332.81;1722111;83;20456;-63
2021/11/20 14:01:43;;;;;;;;;;;;;;;10.41;48.85;99343.60;1698418;84;20177;-63
2021/11/20 14:04:13;;;;;;;;;;;;;;;10.38;48.82;99341.80;1704501;84;20236;-62
2021/11/20 14:06:42;;;;;;;;;;;;;;;10.34;49.04;99355.10;1692940;84;20188;-62
2021/11/20 14:18:01;;;;;;;;;;;;;;;10.25;49.93;99357.80;1694268;83;20171;-63
2021/11/20 14:23:24;;;;;;;;;;;;;;;10.24;49.91;99382.13;1703682;84;20212;-62
2021/11/20 14:28:49;;;;;;;;;;;;;;;10.23;51.01;99404.25;1683573;84;20240;-62
2021/11/20 14:31:27;;;;;;;;;;;;;;;10.21;50.34;99400.36;1695977;83;20154;-59
2021/11/20 14:33:58;;;;;;;;;;;;;;;10.17;50.34;99403.20;1704560;83;20478;-62
2021/11/20 14:36:38;;;;;;;;;;;;;;;10.13;50.03;99407.44;1702508;84;20220;-61
2021/11/20 14:39:09;;;;;;;;;;;;;;;10.10;50.27;99414.19;1702150;83;20168;-62
2021/11/20 14:41:40;;;;;;;;;;;;;;;10.07;50.25;99420.63;1692281;84;20230;-62
2021/11/20 14:44:12;;;;;;;;;;;;;;;10.03;50.49;99426.22;1703854;83;20288;-62
2021/11/20 14:46:42;;;;;;;;;;;;;;;10.00;50.37;99458.13;1706683;83;20204;-62
2021/11/20 14:49:12;;;;;;;;;;;;;;;9.96;50.07;99445.94;1702623;84;20548;-62
2021/11/20 14:51:47;;;;;;;;;;;;;;;9.96;50.59;99440.47;1702911;83;20176;-62